createdAt,value
2023-03-07T00:00:27.141Z,98.47
2023-03-07T00:01:27.157Z,98.47
2023-03-07T00:02:27.123Z,98.47
2023-03-07T00:03:27.172Z,98.52
2023-03-07T00:04:27.122Z,98.52
2023-03-07T00:05:27.089Z,98.52
2023-03-07T00:06:27.076Z,98.52
2023-03-07T00:07:27.072Z,98.52
2023-03-07T00:08:27.096Z,98.63
2023-03-07T00:09:27.053Z,98.63
2023-03-07T00:10:27.022Z,98.63
2023-03-07T00:11:27.022Z,98.73
2023-03-07T00:12:27.010Z,98.73
2023-03-07T00:13:27.022Z,98.73
2023-03-07T00:14:26.989Z,98.83
2023-03-07T00:15:26.982Z,98.83
2023-03-07T00:16:27.076Z,98.83
2023-03-07T00:17:26.951Z,98.94
2023-03-07T00:18:26.944Z,98.94
2023-03-07T00:19:26.930Z,99.04
2023-03-07T00:20:26.931Z,99.04
2023-03-07T00:21:26.919Z,99.04
2023-03-07T00:22:26.982Z,99.04
2023-03-07T00:23:26.888Z,99.00
2023-03-07T00:24:26.895Z,99.00
2023-03-07T00:25:26.876Z,99.00
2023-03-07T00:26:26.874Z,99.00
2023-03-07T00:27:26.849Z,99.10
2023-03-07T00:28:26.929Z,99.10
2023-03-07T00:29:26.817Z,99.10
2023-03-07T00:30:26.818Z,99.10
2023-03-07T00:31:26.830Z,99.10
2023-03-07T00:32:26.817Z,99.21
2023-03-07T00:33:26.779Z,99.21
2023-03-07T00:34:26.823Z,99.21
2023-03-07T00:35:26.766Z,99.21
2023-03-07T00:36:26.789Z,99.21
2023-03-07T00:37:26.761Z,99.21
2023-03-07T00:38:26.763Z,99.21
2023-03-07T00:39:26.718Z,99.21
2023-03-07T00:40:26.715Z,99.21
2023-03-07T00:41:26.757Z,99.21
2023-03-07T00:42:26.692Z,99.21
2023-03-07T00:43:26.675Z,99.05
2023-03-07T00:44:26.698Z,99.16
2023-03-07T00:45:26.700Z,99.05
2023-03-07T00:46:26.665Z,99.16
2023-03-07T00:47:26.648Z,99.16
2023-03-07T00:48:26.628Z,99.16
2023-03-07T00:49:26.638Z,99.16
2023-03-07T00:50:26.611Z,99.26
2023-03-07T00:51:26.608Z,99.26
2023-03-07T00:52:26.648Z,99.26
2023-03-07T00:53:26.579Z,99.16
2023-03-07T00:54:26.580Z,99.05
2023-03-07T00:55:26.557Z,99.05
2023-03-07T00:56:26.582Z,98.95
2023-03-07T00:57:26.544Z,98.95
2023-03-07T00:58:26.525Z,98.95
2023-03-07T00:59:26.562Z,98.95
2023-03-07T01:00:26.550Z,98.85
2023-03-07T01:01:26.514Z,98.85
2023-03-07T01:02:26.516Z,98.85
2023-03-07T01:03:26.479Z,98.85
2023-03-07T01:04:26.500Z,98.85
2023-03-07T01:05:26.485Z,98.74
2023-03-07T01:06:26.453Z,98.74
2023-03-07T01:07:26.426Z,98.74
2023-03-07T01:08:26.417Z,98.74
2023-03-07T01:09:26.407Z,98.74
2023-03-07T01:10:26.397Z,98.74
2023-03-07T01:11:26.446Z,98.74
2023-03-07T01:12:26.389Z,98.74
2023-03-07T01:13:26.368Z,98.74
2023-03-07T01:14:26.355Z,98.74
2023-03-07T01:15:26.345Z,98.64
2023-03-07T01:16:26.364Z,98.64
2023-03-07T01:17:26.398Z,98.64
2023-03-07T01:18:26.316Z,98.64
2023-03-07T01:19:26.305Z,98.64
2023-03-07T01:20:26.296Z,98.64
2023-03-07T01:21:26.283Z,98.64
2023-03-07T01:22:26.304Z,98.64
2023-03-07T01:23:26.266Z,98.64
2023-03-07T01:24:26.251Z,98.64
2023-03-07T01:25:26.244Z,98.64
2023-03-07T01:26:26.285Z,98.64
2023-03-07T01:27:26.213Z,98.74
2023-03-07T01:28:26.260Z,98.74
2023-03-07T01:29:26.193Z,98.74
2023-03-07T01:30:26.192Z,98.74
2023-03-07T01:31:26.244Z,98.85
2023-03-07T01:32:26.180Z,98.74
2023-03-07T01:33:26.152Z,98.85
2023-03-07T01:34:26.185Z,98.85
2023-03-07T01:35:26.132Z,98.85
2023-03-07T01:36:26.192Z,98.95
2023-03-07T01:37:26.122Z,98.95
2023-03-07T01:38:26.103Z,99.05
2023-03-07T01:39:26.140Z,99.05
2023-03-07T01:40:26.107Z,99.05
2023-03-07T01:41:26.062Z,99.05
2023-03-07T01:42:26.092Z,99.05
2023-03-07T01:43:26.063Z,99.05
2023-03-07T01:44:26.153Z,99.16
2023-03-07T01:45:26.033Z,99.16
2023-03-07T01:46:26.022Z,99.16
2023-03-07T01:47:26.004Z,99.26
2023-03-07T01:48:26.001Z,99.26
2023-03-07T01:49:26.039Z,99.37
2023-03-07T01:50:25.980Z,99.37
2023-03-07T01:51:25.971Z,99.37
2023-03-07T01:52:25.983Z,99.47
2023-03-07T01:53:25.962Z,99.47
2023-03-07T01:54:25.948Z,99.57
2023-03-07T01:55:25.935Z,99.57
2023-03-07T01:56:25.948Z,99.57
2023-03-07T01:57:25.897Z,99.57
2023-03-07T01:58:25.976Z,99.57
2023-03-07T01:59:25.876Z,99.57
2023-03-07T02:00:25.872Z,99.68
2023-03-07T02:01:25.891Z,99.68
2023-03-07T02:02:25.845Z,99.68
2023-03-07T02:03:25.862Z,99.68
2023-03-07T02:04:25.866Z,99.68
2023-03-07T02:05:25.827Z,99.68
2023-03-07T02:06:25.814Z,99.57
2023-03-07T02:07:25.798Z,99.57
2023-03-07T02:08:25.835Z,99.57
2023-03-07T02:09:25.798Z,99.57
2023-03-07T02:10:25.751Z,99.57
2023-03-07T02:11:25.744Z,99.57
2023-03-07T02:12:25.745Z,99.57
2023-03-07T02:13:25.772Z,99.57
2023-03-07T02:14:25.713Z,99.57
2023-03-07T02:15:25.709Z,99.47
2023-03-07T02:16:25.702Z,99.47
2023-03-07T02:17:25.688Z,99.47
2023-03-07T02:18:25.672Z,99.37
2023-03-07T02:19:25.748Z,99.26
2023-03-07T02:20:25.701Z,99.26
2023-03-07T02:21:25.645Z,99.16
2023-03-07T02:22:25.664Z,99.05
2023-03-07T02:23:25.649Z,98.95
2023-03-07T02:24:25.613Z,98.85
2023-03-07T02:25:25.591Z,98.74
2023-03-07T02:26:25.612Z,98.74
2023-03-07T02:27:25.581Z,98.64
2023-03-07T02:28:25.644Z,98.64
2023-03-07T02:29:25.552Z,98.64
2023-03-07T02:30:25.558Z,98.54
2023-03-07T02:31:25.532Z,98.43
2023-03-07T02:32:25.600Z,98.22
2023-03-07T02:33:25.512Z,98.22
2023-03-07T02:34:25.502Z,98.12
2023-03-07T02:35:25.565Z,98.02
2023-03-07T02:36:25.482Z,97.91
2023-03-07T02:37:25.475Z,97.81
2023-03-07T02:38:25.501Z,97.71
2023-03-07T02:39:25.451Z,97.60
2023-03-07T02:40:25.454Z,97.50
2023-03-07T02:41:25.420Z,97.29
2023-03-07T02:42:25.425Z,97.19
2023-03-07T02:43:25.411Z,97.19
2023-03-07T02:44:25.432Z,97.09
2023-03-07T02:45:25.388Z,96.98
2023-03-07T02:46:25.430Z,96.88
2023-03-07T02:47:25.372Z,96.78
2023-03-07T02:48:25.351Z,96.67
2023-03-07T02:49:25.395Z,96.67
2023-03-07T02:50:25.344Z,96.57
2023-03-07T02:51:25.320Z,96.57
2023-03-07T02:52:25.320Z,96.47
2023-03-07T02:53:25.300Z,96.47
2023-03-07T02:54:25.356Z,96.47
2023-03-07T02:55:25.301Z,96.57
2023-03-07T02:56:25.285Z,96.57
2023-03-07T02:57:25.250Z,96.57
2023-03-07T02:58:25.252Z,96.57
2023-03-07T02:59:25.271Z,96.57
2023-03-07T03:00:25.280Z,96.67
2023-03-07T03:01:25.262Z,96.67
2023-03-07T03:02:25.211Z,96.67
2023-03-07T03:03:25.197Z,96.78
2023-03-07T03:04:25.238Z,96.88
2023-03-07T03:05:25.181Z,96.98
2023-03-07T03:06:25.174Z,96.98
2023-03-07T03:07:25.150Z,97.09
2023-03-07T03:08:25.193Z,97.09
2023-03-07T03:09:25.133Z,97.19
2023-03-07T03:10:25.131Z,97.29
2023-03-07T03:11:25.119Z,97.29
2023-03-07T03:12:25.106Z,97.29
2023-03-07T03:13:25.093Z,97.39
2023-03-07T03:14:25.182Z,97.39
2023-03-07T03:15:25.103Z,97.39
2023-03-07T03:16:25.124Z,97.39
2023-03-07T03:17:25.053Z,97.29
2023-03-07T03:18:25.063Z,97.29
2023-03-07T03:19:25.027Z,97.29
2023-03-07T03:20:25.083Z,97.19
2023-03-07T03:21:25.019Z,97.19
2023-03-07T03:22:25.031Z,97.09
2023-03-07T03:23:25.031Z,97.09
2023-03-07T03:24:24.981Z,96.98
2023-03-07T03:25:24.969Z,96.98
2023-03-07T03:26:24.963Z,96.98
2023-03-07T03:27:24.966Z,96.88
2023-03-07T03:28:24.932Z,96.78
2023-03-07T03:29:24.914Z,96.78
2023-03-07T03:30:24.916Z,96.78
2023-03-07T03:31:24.951Z,96.88
2023-03-07T03:32:24.945Z,96.88
2023-03-07T03:33:24.881Z,96.88
2023-03-07T03:34:24.880Z,96.98
2023-03-07T03:35:24.861Z,96.98
2023-03-07T03:36:24.861Z,96.88
2023-03-07T03:37:24.873Z,96.88
2023-03-07T03:38:24.840Z,96.88
2023-03-07T03:39:24.825Z,96.88
2023-03-07T03:40:24.819Z,96.88
2023-03-07T03:41:24.805Z,96.88
2023-03-07T03:42:24.793Z,96.78
2023-03-07T03:43:24.816Z,96.78
2023-03-07T03:44:24.779Z,96.88
2023-03-07T03:45:24.778Z,96.88
2023-03-07T03:46:24.821Z,96.98
2023-03-07T03:47:24.730Z,96.98
2023-03-07T03:48:24.729Z,96.98
2023-03-07T03:49:24.709Z,97.09
2023-03-07T03:50:24.727Z,97.19
2023-03-07T03:51:24.707Z,97.19
2023-03-07T03:52:24.677Z,97.19
2023-03-07T03:53:24.841Z,97.29
2023-03-07T03:54:24.657Z,97.39
2023-03-07T03:55:24.647Z,97.29
2023-03-07T03:56:24.928Z,97.29
2023-03-07T03:57:24.619Z,97.19
2023-03-07T03:58:24.680Z,97.19
2023-03-07T03:59:24.595Z,97.29
2023-03-07T04:00:24.653Z,97.39
2023-03-07T04:01:24.579Z,97.39
2023-03-07T04:02:24.738Z,97.29
2023-03-07T04:03:24.584Z,97.34
2023-03-07T04:04:24.555Z,97.13
2023-03-07T04:05:24.542Z,97.03
2023-03-07T04:06:24.554Z,97.03
2023-03-07T04:07:24.586Z,97.13
2023-03-07T04:08:24.517Z,97.13
2023-03-07T04:09:24.524Z,97.24
2023-03-07T04:10:24.484Z,97.34
2023-03-07T04:11:24.485Z,97.44
2023-03-07T04:12:24.529Z,97.44
2023-03-07T04:13:24.541Z,97.55
2023-03-07T04:14:24.454Z,97.55
2023-03-07T04:15:24.432Z,97.65
2023-03-07T04:16:24.490Z,97.65
2023-03-07T04:17:24.426Z,97.80
2023-03-07T04:18:24.404Z,97.69
2023-03-07T04:19:24.418Z,97.69
2023-03-07T04:20:24.374Z,97.69
2023-03-07T04:21:24.357Z,97.80
2023-03-07T04:22:24.429Z,97.80
2023-03-07T04:23:24.356Z,97.80
2023-03-07T04:24:24.330Z,97.90
2023-03-07T04:25:24.316Z,98.11
2023-03-07T04:26:24.407Z,98.11
2023-03-07T04:27:24.305Z,98.21
2023-03-07T04:28:24.278Z,98.32
2023-03-07T04:29:24.316Z,98.42
2023-03-07T04:30:24.262Z,98.52
2023-03-07T04:31:24.271Z,98.52
2023-03-07T04:32:24.311Z,98.63
2023-03-07T04:33:24.289Z,98.73
2023-03-07T04:34:24.238Z,98.83
2023-03-07T04:35:24.244Z,98.83
2023-03-07T04:36:24.210Z,98.94
2023-03-07T04:37:24.248Z,99.04
2023-03-07T04:38:24.189Z,99.09
2023-03-07T04:39:24.180Z,99.19
2023-03-07T04:40:24.168Z,99.19
2023-03-07T04:41:24.168Z,99.30
2023-03-07T04:42:24.177Z,99.30
2023-03-07T04:43:24.147Z,99.40
2023-03-07T04:44:24.138Z,99.40
2023-03-07T04:45:24.118Z,99.61
2023-03-07T04:46:24.163Z,99.61
2023-03-07T04:47:24.098Z,99.61
2023-03-07T04:48:24.078Z,99.71
2023-03-07T04:49:24.109Z,99.71
2023-03-07T04:50:24.097Z,99.71
2023-03-07T04:51:24.059Z,99.82
2023-03-07T04:52:24.108Z,99.92
2023-03-07T04:53:24.046Z,99.92
2023-03-07T04:54:24.052Z,99.92
2023-03-07T04:55:24.007Z,99.99
2023-03-07T04:56:23.996Z,99.99
2023-03-07T04:57:23.998Z,99.99
2023-03-07T04:58:23.984Z,99.99
2023-03-07T04:59:23.970Z,99.99
2023-03-07T05:00:24.065Z,99.99
2023-03-07T05:01:24.114Z,99.99
2023-03-07T05:02:23.953Z,99.99
2023-03-07T05:03:23.926Z,99.99
2023-03-07T05:04:24.000Z,99.99
2023-03-07T05:05:23.906Z,99.99
2023-03-07T05:06:23.926Z,99.99
2023-03-07T05:07:23.890Z,99.99
2023-03-07T05:08:23.916Z,99.99
2023-03-07T05:09:23.915Z,99.99
2023-03-07T05:10:23.947Z,99.99
2023-03-07T05:11:23.855Z,99.99
2023-03-07T05:12:23.831Z,99.99
2023-03-07T05:13:23.836Z,99.99
2023-03-07T05:14:23.805Z,99.99
2023-03-07T05:15:23.867Z,99.99
2023-03-07T05:16:23.827Z,99.99
2023-03-07T05:17:23.778Z,99.99
2023-03-07T05:18:23.785Z,99.99
2023-03-07T05:19:23.753Z,99.99
2023-03-07T05:20:23.746Z,99.99
2023-03-07T05:21:23.792Z,99.99
2023-03-07T05:22:23.724Z,99.99
2023-03-07T05:23:23.726Z,99.99
2023-03-07T05:24:23.741Z,99.99
2023-03-07T05:25:23.701Z,99.99
2023-03-07T05:26:23.706Z,99.99
2023-03-07T05:27:23.676Z,99.99
2023-03-07T05:28:23.661Z,99.99
2023-03-07T05:29:23.699Z,99.99
2023-03-07T05:30:23.645Z,99.99
2023-03-07T05:31:23.695Z,99.99
2023-03-07T05:32:23.715Z,99.99
2023-03-07T05:33:23.611Z,99.99
2023-03-07T05:34:23.630Z,99.99
2023-03-07T05:35:23.590Z,99.99
2023-03-07T05:36:23.590Z,99.99
2023-03-07T05:37:23.580Z,99.99
2023-03-07T05:38:23.605Z,99.99
2023-03-07T05:39:23.550Z,99.99
2023-03-07T05:40:23.542Z,99.99
2023-03-07T05:41:23.523Z,99.99
2023-03-07T05:42:23.509Z,99.99
2023-03-07T05:43:23.498Z,99.99
2023-03-07T05:44:23.584Z,99.99
2023-03-07T05:45:23.496Z,99.99
2023-03-07T05:46:23.850Z,99.99
2023-03-07T05:47:23.456Z,99.99
2023-03-07T05:48:23.466Z,99.99
2023-03-07T05:49:23.470Z,99.99
2023-03-07T05:50:23.434Z,99.99
2023-03-07T05:51:23.432Z,99.99
2023-03-07T05:52:23.412Z,99.99
2023-03-07T05:53:23.409Z,99.99
2023-03-07T05:54:23.389Z,99.99
2023-03-07T05:55:23.660Z,99.99
2023-03-07T05:56:23.402Z,99.99
2023-03-07T05:57:23.371Z,99.99
2023-03-07T05:58:23.360Z,99.99
2023-03-07T05:59:23.346Z,99.99
2023-03-07T06:00:23.327Z,99.99
2023-03-07T06:01:23.321Z,99.99
2023-03-07T06:02:23.384Z,99.99
2023-03-07T06:03:23.394Z,99.99
2023-03-07T06:04:23.290Z,99.99
2023-03-07T06:05:25.261Z,99.99
2023-03-07T06:06:23.264Z,99.99
2023-03-07T06:07:23.278Z,99.99
2023-03-07T06:08:23.240Z,99.99
2023-03-07T06:09:23.275Z,99.99
2023-03-07T06:10:23.220Z,99.99
2023-03-07T06:11:23.284Z,99.99
2023-03-07T06:12:23.201Z,99.99
2023-03-07T06:13:23.198Z,99.99
2023-03-07T06:14:23.182Z,99.99
2023-03-07T06:15:24.716Z,99.99
2023-03-07T06:16:23.194Z,99.99
2023-03-07T06:17:23.148Z,99.99
2023-03-07T06:18:23.167Z,99.99
2023-03-07T06:19:23.272Z,99.99
2023-03-07T06:20:23.116Z,99.99
2023-03-07T06:21:23.266Z,99.99
2023-03-07T06:22:23.092Z,99.99
2023-03-07T06:23:23.090Z,99.99
2023-03-07T06:24:23.068Z,99.99
2023-03-07T06:25:23.095Z,99.99
2023-03-07T06:26:23.083Z,99.99
2023-03-07T06:27:23.086Z,99.99
2023-03-07T06:28:23.049Z,99.99
2023-03-07T06:29:23.027Z,99.99
2023-03-07T06:30:23.014Z,99.99
2023-03-07T06:31:23.040Z,99.99
2023-03-07T06:32:23.030Z,99.99
2023-03-07T06:33:23.026Z,99.99
2023-03-07T06:34:22.978Z,99.99
2023-03-07T06:35:22.991Z,99.99
2023-03-07T06:36:23.075Z,99.99
2023-03-07T06:37:22.981Z,99.99
2023-03-07T06:38:23.008Z,99.99
2023-03-07T06:39:22.954Z,99.99
2023-03-07T06:40:22.908Z,99.99
2023-03-07T06:41:22.899Z,99.99
2023-03-07T06:42:22.877Z,99.99
2023-03-07T06:43:22.895Z,99.99
2023-03-07T06:44:22.866Z,99.99
2023-03-07T06:45:22.977Z,99.99
2023-03-07T06:46:22.877Z,99.99
2023-03-07T06:47:22.834Z,99.99
2023-03-07T06:48:22.815Z,99.99
2023-03-07T06:49:22.859Z,99.99
2023-03-07T06:50:34.504Z,99.99
2023-03-07T06:51:23.814Z,99.99
2023-03-07T06:52:22.774Z,99.99
2023-03-07T06:53:26.535Z,99.99
2023-03-07T06:54:22.762Z,99.99
2023-03-07T06:55:22.833Z,99.99
2023-03-07T06:56:22.734Z,99.99
2023-03-07T06:57:22.725Z,99.99
2023-03-07T06:58:22.732Z,99.99
2023-03-07T06:59:22.710Z,99.99
2023-03-07T07:00:22.717Z,99.99
2023-03-07T07:01:22.735Z,99.99
2023-03-07T07:02:22.858Z,99.99
2023-03-07T07:03:22.752Z,99.99
2023-03-07T07:04:22.662Z,99.99
2023-03-07T07:05:22.647Z,99.99
2023-03-07T07:06:22.671Z,99.93
2023-03-07T07:07:22.620Z,99.93
2023-03-07T07:08:22.601Z,99.93
2023-03-07T07:09:22.601Z,99.93
2023-03-07T07:10:22.582Z,99.93
2023-03-07T07:11:22.570Z,99.82
2023-03-07T07:12:22.590Z,99.72
2023-03-07T07:13:22.561Z,99.72
2023-03-07T07:14:22.541Z,99.72
2023-03-07T07:15:22.535Z,99.72
2023-03-07T07:16:22.626Z,99.82
2023-03-07T07:17:22.510Z,99.82
2023-03-07T07:18:22.551Z,99.82
2023-03-07T07:19:22.512Z,99.72
2023-03-07T07:20:22.481Z,99.72
2023-03-07T07:21:22.479Z,99.72
2023-03-07T07:22:22.451Z,99.62
2023-03-07T07:23:22.449Z,99.62
2023-03-07T07:24:22.487Z,99.62
2023-03-07T07:25:22.427Z,99.62
2023-03-07T07:26:22.411Z,99.72
2023-03-07T07:27:22.441Z,99.72
2023-03-07T07:28:22.389Z,99.62
2023-03-07T07:29:22.401Z,99.72
2023-03-07T07:30:22.836Z,99.72
2023-03-07T07:31:22.396Z,99.72
2023-03-07T07:32:22.487Z,99.82
2023-03-07T07:33:22.370Z,99.72
2023-03-07T07:34:22.334Z,99.72
2023-03-07T07:35:22.353Z,99.72
2023-03-07T07:36:22.972Z,99.72
2023-03-07T07:37:22.297Z,99.82
2023-03-07T07:38:22.309Z,99.82
2023-03-07T07:39:22.287Z,99.82
2023-03-07T07:40:22.263Z,99.93
2023-03-07T07:41:22.267Z,99.93
2023-03-07T07:42:22.285Z,99.93
2023-03-07T07:43:22.240Z,99.93
2023-03-07T07:44:22.230Z,99.93
2023-03-07T07:45:22.251Z,99.93
2023-03-07T07:46:22.276Z,99.93
2023-03-07T07:47:22.196Z,99.93
2023-03-07T07:48:22.180Z,99.93
2023-03-07T07:49:22.183Z,99.93
2023-03-07T07:50:22.165Z,99.93
2023-03-07T07:51:22.191Z,99.99
2023-03-07T07:52:22.171Z,99.98
2023-03-07T07:53:22.168Z,99.98
2023-03-07T07:54:22.118Z,99.87
2023-03-07T07:55:22.110Z,99.51
2023-03-07T07:56:23.830Z,99.61
2023-03-07T07:57:22.814Z,99.55
2023-03-07T07:58:22.095Z,99.65
2023-03-07T07:59:22.081Z,99.65
2023-03-07T08:00:22.070Z,99.65
2023-03-07T08:01:22.063Z,99.65
2023-03-07T08:02:22.142Z,99.76
2023-03-07T08:03:22.146Z,99.86
2023-03-07T08:04:22.064Z,99.76
2023-03-07T08:05:22.076Z,99.86
2023-03-07T08:06:22.048Z,99.86
2023-03-07T08:07:21.985Z,99.96
2023-03-07T08:08:21.980Z,99.96
2023-03-07T08:09:21.980Z,99.96
2023-03-07T08:10:21.957Z,99.96
2023-03-07T08:11:21.946Z,99.99
2023-03-07T08:12:21.980Z,99.99
2023-03-07T08:13:21.989Z,99.99
2023-03-07T08:14:21.913Z,99.99
2023-03-07T08:15:21.904Z,99.99
2023-03-07T08:16:21.890Z,99.99
2023-03-07T08:17:21.887Z,99.99
2023-03-07T08:18:21.918Z,99.99
2023-03-07T08:19:21.864Z,99.99
2023-03-07T08:20:21.861Z,99.99
2023-03-07T08:21:21.840Z,99.99
2023-03-07T08:22:21.853Z,99.91
2023-03-07T08:23:21.821Z,99.99
2023-03-07T08:24:29.273Z,99.95
2023-03-07T08:25:22.939Z,99.95
2023-03-07T08:26:21.791Z,99.99
2023-03-07T08:27:21.812Z,99.99
2023-03-07T08:28:21.803Z,99.95
2023-03-07T08:29:21.751Z,99.99
2023-03-07T08:30:21.748Z,99.99
2023-03-07T08:31:21.752Z,99.99
2023-03-07T08:32:21.757Z,99.99
2023-03-07T08:33:23.451Z,99.99
2023-03-07T08:34:21.711Z,99.99
2023-03-07T08:35:21.700Z,99.99
2023-03-07T08:36:21.692Z,99.99
2023-03-07T08:37:21.669Z,99.99
2023-03-07T08:38:21.690Z,99.99
2023-03-07T08:39:24.441Z,99.99
2023-03-07T08:40:21.700Z,99.99
2023-03-07T08:41:21.679Z,99.99
2023-03-07T08:42:21.641Z,99.99
2023-03-07T08:43:21.616Z,99.99
2023-03-07T08:44:21.629Z,99.99
2023-03-07T08:45:22.871Z,99.99
2023-03-07T08:46:21.619Z,99.99
2023-03-07T08:47:21.580Z,99.99
2023-03-07T08:48:21.557Z,99.99
2023-03-07T08:49:21.575Z,99.99
2023-03-07T08:50:21.545Z,99.99
2023-03-07T08:51:21.522Z,99.99
2023-03-07T08:52:21.519Z,99.99
2023-03-07T08:53:21.496Z,99.99
2023-03-07T08:54:21.493Z,99.99
2023-03-07T08:55:21.550Z,99.99
2023-03-07T08:56:21.472Z,99.99
2023-03-07T08:57:21.459Z,99.99
2023-03-07T08:58:21.458Z,99.99
2023-03-07T08:59:21.440Z,99.99
2023-03-07T09:00:21.460Z,99.99
2023-03-07T09:01:21.564Z,99.99
2023-03-07T09:02:21.409Z,99.99
2023-03-07T09:03:21.390Z,99.99
2023-03-07T09:04:21.418Z,99.99
2023-03-07T09:05:21.378Z,99.99
2023-03-07T09:06:21.367Z,99.99
2023-03-07T09:07:21.485Z,99.99
2023-03-07T09:08:21.417Z,99.99
2023-03-07T09:09:21.335Z,99.99
2023-03-07T09:10:21.325Z,99.99
2023-03-07T09:11:21.366Z,99.99
2023-03-07T09:12:21.305Z,99.99
2023-03-07T09:13:21.287Z,99.99
2023-03-07T09:14:21.285Z,99.99
2023-03-07T09:15:21.265Z,99.99
2023-03-07T09:16:21.355Z,99.99
2023-03-07T09:17:21.598Z,99.99
2023-03-07T09:18:21.237Z,99.99
2023-03-07T09:19:21.234Z,99.99
2023-03-07T09:20:21.228Z,99.99
2023-03-07T09:21:21.211Z,99.99
2023-03-07T09:22:21.195Z,99.99
2023-03-07T09:23:21.257Z,99.99
2023-03-07T09:24:21.236Z,99.99
2023-03-07T09:25:21.223Z,99.99
2023-03-07T09:26:21.158Z,99.99
2023-03-07T09:27:21.136Z,99.99
2023-03-07T09:28:21.136Z,99.99
2023-03-07T09:29:21.161Z,99.99
2023-03-07T09:30:21.120Z,99.99
2023-03-07T09:31:21.159Z,99.99
2023-03-07T09:32:21.148Z,99.99
2023-03-07T09:33:21.079Z,99.99
2023-03-07T09:34:21.099Z,99.99
2023-03-07T09:35:21.112Z,99.99
2023-03-07T09:36:21.064Z,99.99
2023-03-07T09:37:21.048Z,99.99
2023-03-07T09:38:21.034Z,99.99
2023-03-07T09:39:21.026Z,99.99
2023-03-07T09:40:21.112Z,99.99
2023-03-07T09:41:21.000Z,99.99
2023-03-07T09:42:21.001Z,99.99
2023-03-07T09:43:20.984Z,99.99
2023-03-07T09:44:20.968Z,99.99
2023-03-07T09:45:20.949Z,99.99
2023-03-07T09:46:20.998Z,99.99
2023-03-07T09:47:20.940Z,99.99
2023-03-07T09:48:20.967Z,99.99
2023-03-07T09:49:20.972Z,99.99
2023-03-07T09:50:20.929Z,99.99
2023-03-07T09:51:20.886Z,99.99
2023-03-07T09:52:20.897Z,99.99
2023-03-07T09:53:20.884Z,99.99
2023-03-07T09:54:20.896Z,99.99
2023-03-07T09:55:20.862Z,99.99
2023-03-07T09:56:20.900Z,99.99
2023-03-07T09:57:20.845Z,99.99
2023-03-07T09:58:20.826Z,99.99
2023-03-07T09:59:23.419Z,99.99
2023-03-07T10:00:20.861Z,99.99
2023-03-07T10:01:20.785Z,99.99
2023-03-07T10:02:22.543Z,99.99
2023-03-07T10:03:20.849Z,99.99
2023-03-07T10:04:20.817Z,99.99
2023-03-07T10:05:20.748Z,99.99
2023-03-07T10:06:20.745Z,99.99
2023-03-07T10:07:20.724Z,99.99
2023-03-07T10:08:20.751Z,99.99
2023-03-07T10:09:20.878Z,99.99
2023-03-07T10:10:20.737Z,99.99
2023-03-07T10:11:20.756Z,99.99
2023-03-07T10:12:20.680Z,99.99
2023-03-07T10:13:20.655Z,99.99
2023-03-07T10:14:20.767Z,99.99
2023-03-07T10:15:20.692Z,99.99
2023-03-07T10:16:20.647Z,99.99
2023-03-07T10:17:20.615Z,99.99
2023-03-07T10:18:20.635Z,99.99
2023-03-07T10:19:20.651Z,99.99
2023-03-07T10:20:20.628Z,99.99
2023-03-07T10:21:20.581Z,99.99
2023-03-07T10:22:20.580Z,99.99
2023-03-07T10:23:22.429Z,99.99
2023-03-07T10:24:20.552Z,99.99
2023-03-07T10:25:20.593Z,99.99
2023-03-07T10:26:20.524Z,99.99
2023-03-07T10:27:20.520Z,99.99
2023-03-07T10:28:20.511Z,99.99
2023-03-07T10:29:20.490Z,99.99
2023-03-07T10:30:20.488Z,99.99
2023-03-07T10:31:20.592Z,99.99
2023-03-07T10:32:20.574Z,99.99
2023-03-07T10:33:20.458Z,99.99
2023-03-07T10:34:27.088Z,99.99
2023-03-07T10:35:21.429Z,99.99
2023-03-07T10:36:20.437Z,99.99
2023-03-07T10:37:20.461Z,99.99
2023-03-07T10:38:20.410Z,99.99
2023-03-07T10:39:20.377Z,99.99
2023-03-07T10:40:20.456Z,99.99
2023-03-07T10:41:20.366Z,99.99
2023-03-07T10:42:20.356Z,99.99
2023-03-07T10:43:20.371Z,99.99
2023-03-07T10:44:20.384Z,99.99
2023-03-07T10:45:20.315Z,99.99
2023-03-07T10:46:27.762Z,99.99
2023-03-07T10:47:21.302Z,99.99
2023-03-07T10:48:20.297Z,99.99
2023-03-07T10:49:20.276Z,99.99
2023-03-07T10:50:22.003Z,99.99
2023-03-07T10:51:20.255Z,99.99
2023-03-07T10:52:20.282Z,99.99
2023-03-07T10:53:20.231Z,99.99
2023-03-07T10:54:20.289Z,99.99
2023-03-07T10:55:21.636Z,99.99
2023-03-07T10:56:20.278Z,99.99
2023-03-07T10:57:20.194Z,99.99
2023-03-07T10:58:20.182Z,99.99
2023-03-07T10:59:20.171Z,99.99
2023-03-07T11:00:20.197Z,99.99
2023-03-07T11:01:20.192Z,99.99
2023-03-07T11:02:20.161Z,99.99
2023-03-07T11:03:20.128Z,99.99
2023-03-07T11:04:20.193Z,99.99
2023-03-07T11:05:20.115Z,99.99
2023-03-07T11:06:20.100Z,99.99
2023-03-07T11:07:20.088Z,99.99
2023-03-07T11:08:20.169Z,99.99
2023-03-07T11:09:20.062Z,99.99
2023-03-07T11:10:20.148Z,99.99
2023-03-07T11:11:20.049Z,99.99
2023-03-07T11:12:20.049Z,99.99
2023-03-07T11:13:20.056Z,99.99
2023-03-07T11:14:20.017Z,99.99
2023-03-07T11:15:20.005Z,99.99
2023-03-07T11:16:20.076Z,99.99
2023-03-07T11:17:20.014Z,99.99
2023-03-07T11:18:20.015Z,99.99
2023-03-07T11:19:19.946Z,99.99
2023-03-07T11:20:19.982Z,99.99
2023-03-07T11:21:19.934Z,99.99
2023-03-07T11:22:19.938Z,99.99
2023-03-07T11:23:19.918Z,99.99
2023-03-07T11:24:20.063Z,99.99
2023-03-07T11:25:19.887Z,99.99
2023-03-07T11:26:19.886Z,99.99
2023-03-07T11:27:19.898Z,99.99
2023-03-07T11:28:19.890Z,99.99
2023-03-07T11:29:19.874Z,99.99
2023-03-07T11:30:19.841Z,99.99
2023-03-07T11:31:19.847Z,99.99
2023-03-07T11:32:19.843Z,99.99
2023-03-07T11:33:19.833Z,99.99
2023-03-07T11:34:19.841Z,99.99
2023-03-07T11:35:19.783Z,99.99
2023-03-07T11:36:19.854Z,99.99
2023-03-07T11:37:21.235Z,99.99
2023-03-07T11:38:21.521Z,99.99
2023-03-07T11:39:19.813Z,99.99
2023-03-07T11:40:19.838Z,99.99
2023-03-07T11:41:19.722Z,99.99
2023-03-07T11:42:19.713Z,99.99
2023-03-07T11:43:19.706Z,99.99
2023-03-07T11:44:19.736Z,99.99
2023-03-07T11:45:19.703Z,99.99
2023-03-07T11:46:19.722Z,99.99
2023-03-07T11:47:19.705Z,99.99
2023-03-07T11:48:19.657Z,99.99
2023-03-07T11:49:21.712Z,99.99
2023-03-07T11:50:19.648Z,99.99
2023-03-07T11:51:19.612Z,99.99
2023-03-07T11:52:19.607Z,99.99
2023-03-07T11:53:19.731Z,99.99
2023-03-07T11:54:19.729Z,99.99
2023-03-07T11:55:19.582Z,99.99
2023-03-07T11:56:19.570Z,99.99
2023-03-07T11:57:19.565Z,99.99
2023-03-07T11:58:19.556Z,99.99
2023-03-07T11:59:19.668Z,99.99
2023-03-07T12:00:19.525Z,99.99
2023-03-07T12:01:19.545Z,99.99
2023-03-07T12:02:19.562Z,99.99
2023-03-07T12:03:19.525Z,99.99
2023-03-07T12:04:19.524Z,99.99
2023-03-07T12:05:19.531Z,99.99
2023-03-07T12:06:19.468Z,99.99
2023-03-07T12:07:19.488Z,99.99
2023-03-07T12:08:19.445Z,99.99
2023-03-07T12:09:19.447Z,99.99
2023-03-07T12:10:19.440Z,99.99
2023-03-07T12:11:19.405Z,99.99
2023-03-07T12:12:19.411Z,99.99
2023-03-07T12:13:22.715Z,99.99
2023-03-07T12:14:19.380Z,99.99
2023-03-07T12:15:19.400Z,99.99
2023-03-07T12:16:19.427Z,99.99
2023-03-07T12:17:19.429Z,99.99
2023-03-07T12:18:19.358Z,99.99
2023-03-07T12:19:19.362Z,99.99
2023-03-07T12:20:19.313Z,99.99
2023-03-07T12:21:19.305Z,99.99
2023-03-07T12:22:19.297Z,99.99
2023-03-07T12:23:24.486Z,99.99
2023-03-07T12:24:19.278Z,99.99
2023-03-07T12:25:19.272Z,99.99
2023-03-07T12:26:19.267Z,99.99
2023-03-07T12:27:19.284Z,99.99
2023-03-07T12:28:19.268Z,99.99
2023-03-07T12:29:19.264Z,99.99
2023-03-07T12:30:19.204Z,99.99
2023-03-07T12:31:19.214Z,99.99
2023-03-07T12:32:19.378Z,99.99
2023-03-07T12:33:19.413Z,99.99
2023-03-07T12:34:19.212Z,99.99
2023-03-07T12:35:19.195Z,99.99
2023-03-07T12:36:19.178Z,99.99
2023-03-07T12:37:19.301Z,99.99
2023-03-07T12:38:19.165Z,99.99
2023-03-07T12:39:19.117Z,99.99
2023-03-07T12:40:19.107Z,99.99
2023-03-07T12:41:19.103Z,99.99
2023-03-07T12:42:19.146Z,99.99
2023-03-07T12:43:19.125Z,99.99
2023-03-07T12:44:19.064Z,99.99
2023-03-07T12:45:19.106Z,99.99
2023-03-07T12:46:19.074Z,99.99
2023-03-07T12:47:19.038Z,99.99
2023-03-07T12:48:19.056Z,99.99
2023-03-07T12:49:19.054Z,99.99
2023-03-07T12:50:19.003Z,99.99
2023-03-07T12:51:18.999Z,99.99
2023-03-07T12:52:19.015Z,99.99